sensor_id;sensor_type;location;lat;lon;timestamp;P1;durP1;ratioP1;P2;durP2;ratioP2
8958;SDS011;4514;49.476;8.484;2023-02-15T00:00:33;55.47;;;33.10;;
8958;SDS011;4514;49.476;8.484;2023-02-15T00:03:00;72.80;;;34.13;;
8958;SDS011;4514;49.476;8.484;2023-02-15T00:05:26;77.63;;;34.27;;
8958;SDS011;4514;49.476;8.484;2023-02-15T00:07:54;58.93;;;32.33;;
8958;SDS011;4514;49.476;8.484;2023-02-15T00:10:19;102.77;;;32.43;;
8958;SDS011;4514;49.476;8.484;2023-02-15T00:12:48;57.17;;;33.00;;
8958;SDS011;4514;49.476;8.484;2023-02-15T00:15:18;59.80;;;32.83;;
8958;SDS011;4514;49.476;8.484;2023-02-15T00:17:43;55.03;;;32.73;;
8958;SDS011;4514;49.476;8.484;2023-02-15T00:20:11;61.40;;;32.63;;
8958;SDS011;4514;49.476;8.484;2023-02-15T00:22:36;56.63;;;32.67;;
8958;SDS011;4514;49.476;8.484;2023-02-15T00:25:02;62.33;;;32.40;;
8958;SDS011;4514;49.476;8.484;2023-02-15T00:27:27;56.67;;;31.43;;
8958;SDS011;4514;49.476;8.484;2023-02-15T00:29:53;56.10;;;31.47;;
8958;SDS011;4514;49.476;8.484;2023-02-15T00:32:18;68.57;;;31.80;;
8958;SDS011;4514;49.476;8.484;2023-02-15T00:34:48;51.53;;;31.60;;
8958;SDS011;4514;49.476;8.484;2023-02-15T00:37:18;60.13;;;30.80;;
8958;SDS011;4514;49.476;8.484;2023-02-15T00:39:44;66.20;;;31.83;;
8958;SDS011;4514;49.476;8.484;2023-02-15T00:42:09;63.13;;;32.57;;
8958;SDS011;4514;49.476;8.484;2023-02-15T00:44:34;57.07;;;30.30;;
8958;SDS011;4514;49.476;8.484;2023-02-15T00:47:04;59.27;;;31.10;;
8958;SDS011;4514;49.476;8.484;2023-02-15T00:49:30;58.17;;;31.33;;
8958;SDS011;4514;49.476;8.484;2023-02-15T00:51:55;54.00;;;30.40;;
8958;SDS011;4514;49.476;8.484;2023-02-15T00:54:20;58.83;;;29.23;;
8958;SDS011;4514;49.476;8.484;2023-02-15T00:56:46;77.73;;;29.43;;
8958;SDS011;4514;49.476;8.484;2023-02-15T00:59:11;63.40;;;30.87;;
8958;SDS011;4514;49.476;8.484;2023-02-15T01:01:36;46.23;;;25.93;;
8958;SDS011;4514;49.476;8.484;2023-02-15T01:04:02;44.00;;;27.13;;
8958;SDS011;4514;49.476;8.484;2023-02-15T01:06:29;47.10;;;27.70;;
8958;SDS011;4514;49.476;8.484;2023-02-15T01:08:56;59.43;;;27.77;;
8958;SDS011;4514;49.476;8.484;2023-02-15T01:11:22;47.57;;;27.27;;
8958;SDS011;4514;49.476;8.484;2023-02-15T01:13:50;56.33;;;27.33;;
8958;SDS011;4514;49.476;8.484;2023-02-15T01:16:17;52.20;;;27.40;;
8958;SDS011;4514;49.476;8.484;2023-02-15T01:18:43;61.60;;;28.90;;
8958;SDS011;4514;49.476;8.484;2023-02-15T01:21:14;50.83;;;27.90;;
8958;SDS011;4514;49.476;8.484;2023-02-15T01:23:41;49.13;;;29.63;;
8958;SDS011;4514;49.476;8.484;2023-02-15T01:26:09;50.20;;;27.97;;
8958;SDS011;4514;49.476;8.484;2023-02-15T01:28:35;64.13;;;28.67;;
8958;SDS011;4514;49.476;8.484;2023-02-15T01:31:11;57.60;;;29.20;;
8958;SDS011;4514;49.476;8.484;2023-02-15T01:33:39;47.03;;;27.80;;
8958;SDS011;4514;49.476;8.484;2023-02-15T01:36:06;49.93;;;28.13;;
8958;SDS011;4514;49.476;8.484;2023-02-15T01:38:32;53.17;;;27.90;;
8958;SDS011;4514;49.476;8.484;2023-02-15T01:40:57;49.23;;;29.30;;
8958;SDS011;4514;49.476;8.484;2023-02-15T01:43:44;51.87;;;29.17;;
8958;SDS011;4514;49.476;8.484;2023-02-15T01:46:14;52.37;;;28.83;;
8958;SDS011;4514;49.476;8.484;2023-02-15T01:48:43;54.57;;;30.10;;
8958;SDS011;4514;49.476;8.484;2023-02-15T01:51:11;48.70;;;29.73;;
8958;SDS011;4514;49.476;8.484;2023-02-15T01:53:42;67.67;;;29.07;;
8958;SDS011;4514;49.476;8.484;2023-02-15T01:56:19;55.10;;;31.13;;
8958;SDS011;4514;49.476;8.484;2023-02-15T01:58:49;66.63;;;28.23;;
8958;SDS011;4514;49.476;8.484;2023-02-15T02:01:15;54.77;;;26.97;;
8958;SDS011;4514;49.476;8.484;2023-02-15T02:06:27;56.13;;;30.13;;
8958;SDS011;4514;49.476;8.484;2023-02-15T02:08:53;51.77;;;29.00;;
8958;SDS011;4514;49.476;8.484;2023-02-15T02:11:22;78.40;;;30.30;;
8958;SDS011;4514;49.476;8.484;2023-02-15T02:13:50;52.67;;;30.03;;
8958;SDS011;4514;49.476;8.484;2023-02-15T02:16:21;52.47;;;29.37;;
8958;SDS011;4514;49.476;8.484;2023-02-15T02:32:12;52.67;;;29.03;;
8958;SDS011;4514;49.476;8.484;2023-02-15T02:35:04;52.77;;;29.67;;
8958;SDS011;4514;49.476;8.484;2023-02-15T02:38:08;51.30;;;30.20;;
8958;SDS011;4514;49.476;8.484;2023-02-15T02:40:55;54.47;;;29.63;;
8958;SDS011;4514;49.476;8.484;2023-02-15T02:43:28;50.53;;;29.23;;
8958;SDS011;4514;49.476;8.484;2023-02-15T02:46:12;52.83;;;31.55;;
8958;SDS011;4514;49.476;8.484;2023-02-15T02:48:44;47.27;;;27.13;;
8958;SDS011;4514;49.476;8.484;2023-02-15T02:51:12;49.70;;;27.90;;
8958;SDS011;4514;49.476;8.484;2023-02-15T02:53:48;45.50;;;27.27;;
8958;SDS011;4514;49.476;8.484;2023-02-15T02:59:41;41.17;;;26.50;;
8958;SDS011;4514;49.476;8.484;2023-02-15T03:04:38;36.10;;;24.93;;
8958;SDS011;4514;49.476;8.484;2023-02-15T03:07:08;36.67;;;24.67;;
8958;SDS011;4514;49.476;8.484;2023-02-15T03:09:36;35.23;;;24.13;;
8958;SDS011;4514;49.476;8.484;2023-02-15T03:12:09;33.23;;;22.60;;
8958;SDS011;4514;49.476;8.484;2023-02-15T03:14:36;30.70;;;21.67;;
8958;SDS011;4514;49.476;8.484;2023-02-15T03:17:01;33.37;;;21.93;;
8958;SDS011;4514;49.476;8.484;2023-02-15T03:19:30;30.93;;;22.50;;
8958;SDS011;4514;49.476;8.484;2023-02-15T03:22:04;32.20;;;22.80;;
8958;SDS011;4514;49.476;8.484;2023-02-15T03:27:26;35.77;;;24.03;;
8958;SDS011;4514;49.476;8.484;2023-02-15T03:29:59;30.27;;;22.43;;
8958;SDS011;4514;49.476;8.484;2023-02-15T03:32:28;29.93;;;22.50;;
8958;SDS011;4514;49.476;8.484;2023-02-15T03:35:01;28.00;;;20.63;;
8958;SDS011;4514;49.476;8.484;2023-02-15T03:37:34;34.63;;;20.87;;
8958;SDS011;4514;49.476;8.484;2023-02-15T03:40:10;34.65;;;22.70;;
8958;SDS011;4514;49.476;8.484;2023-02-15T03:43:04;29.20;;;20.87;;
8958;SDS011;4514;49.476;8.484;2023-02-15T03:45:34;34.47;;;24.23;;
8958;SDS011;4514;49.476;8.484;2023-02-15T03:48:19;32.37;;;21.20;;
8958;SDS011;4514;49.476;8.484;2023-02-15T03:50:55;28.47;;;20.93;;
8958;SDS011;4514;49.476;8.484;2023-02-15T03:53:46;34.93;;;22.13;;
8958;SDS011;4514;49.476;8.484;2023-02-15T03:56:14;30.73;;;20.93;;
8958;SDS011;4514;49.476;8.484;2023-02-15T03:58:40;29.90;;;21.17;;
8958;SDS011;4514;49.476;8.484;2023-02-15T04:01:26;26.90;;;20.17;;
8958;SDS011;4514;49.476;8.484;2023-02-15T04:04:18;27.67;;;20.27;;
8958;SDS011;4514;49.476;8.484;2023-02-15T04:06:44;25.17;;;19.13;;
8958;SDS011;4514;49.476;8.484;2023-02-15T04:09:10;27.60;;;21.13;;
8958;SDS011;4514;49.476;8.484;2023-02-15T04:11:56;26.60;;;18.83;;
8958;SDS011;4514;49.476;8.484;2023-02-15T04:14:22;26.83;;;19.07;;
8958;SDS011;4514;49.476;8.484;2023-02-15T04:17:08;26.37;;;19.27;;
8958;SDS011;4514;49.476;8.484;2023-02-15T04:19:34;27.70;;;20.93;;
8958;SDS011;4514;49.476;8.484;2023-02-15T04:22:18;25.97;;;20.63;;
8958;SDS011;4514;49.476;8.484;2023-02-15T04:25:02;29.37;;;21.43;;
8958;SDS011;4514;49.476;8.484;2023-02-15T04:27:41;27.40;;;20.60;;
8958;SDS011;4514;49.476;8.484;2023-02-15T04:30:08;28.73;;;20.47;;
8958;SDS011;4514;49.476;8.484;2023-02-15T04:32:34;28.67;;;20.90;;
8958;SDS011;4514;49.476;8.484;2023-02-15T04:35:00;28.67;;;21.40;;
8958;SDS011;4514;49.476;8.484;2023-02-15T04:37:27;32.50;;;23.07;;
8958;SDS011;4514;49.476;8.484;2023-02-15T04:39:55;30.70;;;21.53;;
8958;SDS011;4514;49.476;8.484;2023-02-15T04:42:21;31.90;;;22.53;;
8958;SDS011;4514;49.476;8.484;2023-02-15T04:44:46;30.83;;;21.67;;
8958;SDS011;4514;49.476;8.484;2023-02-15T04:47:14;30.30;;;23.03;;
8958;SDS011;4514;49.476;8.484;2023-02-15T04:49:41;31.83;;;22.47;;
8958;SDS011;4514;49.476;8.484;2023-02-15T04:52:07;33.70;;;24.10;;
8958;SDS011;4514;49.476;8.484;2023-02-15T04:54:33;31.50;;;23.17;;
8958;SDS011;4514;49.476;8.484;2023-02-15T04:56:58;30.73;;;22.40;;
8958;SDS011;4514;49.476;8.484;2023-02-15T04:59:26;31.33;;;22.57;;
8958;SDS011;4514;49.476;8.484;2023-02-15T05:01:53;33.47;;;23.17;;
8958;SDS011;4514;49.476;8.484;2023-02-15T05:04:19;30.20;;;22.03;;
8958;SDS011;4514;49.476;8.484;2023-02-15T05:06:44;33.47;;;23.37;;
8958;SDS011;4514;49.476;8.484;2023-02-15T05:09:10;30.37;;;23.30;;
8958;SDS011;4514;49.476;8.484;2023-02-15T05:11:36;35.30;;;23.80;;
8958;SDS011;4514;49.476;8.484;2023-02-15T05:14:01;30.90;;;22.10;;
8958;SDS011;4514;49.476;8.484;2023-02-15T05:16:29;29.93;;;21.73;;
8958;SDS011;4514;49.476;8.484;2023-02-15T05:18:59;31.93;;;22.20;;
8958;SDS011;4514;49.476;8.484;2023-02-15T05:21:25;30.77;;;23.50;;
8958;SDS011;4514;49.476;8.484;2023-02-15T05:23:51;32.27;;;23.27;;
8958;SDS011;4514;49.476;8.484;2023-02-15T05:26:18;32.90;;;23.20;;
8958;SDS011;4514;49.476;8.484;2023-02-15T05:29:03;34.27;;;23.97;;
8958;SDS011;4514;49.476;8.484;2023-02-15T05:31:31;36.30;;;24.50;;
8958;SDS011;4514;49.476;8.484;2023-02-15T05:33:57;38.75;;;26.05;;
8958;SDS011;4514;49.476;8.484;2023-02-15T05:36:22;37.13;;;25.25;;
8958;SDS011;4514;49.476;8.484;2023-02-15T05:38:48;33.53;;;22.33;;
8958;SDS011;4514;49.476;8.484;2023-02-15T05:41:14;33.13;;;21.80;;
8958;SDS011;4514;49.476;8.484;2023-02-15T05:43:39;36.43;;;23.47;;
8958;SDS011;4514;49.476;8.484;2023-02-15T05:46:05;32.47;;;21.93;;
8958;SDS011;4514;49.476;8.484;2023-02-15T05:48:31;36.13;;;24.27;;
8958;SDS011;4514;49.476;8.484;2023-02-15T05:53:31;34.53;;;24.40;;
8958;SDS011;4514;49.476;8.484;2023-02-15T05:56:02;36.20;;;24.33;;
8958;SDS011;4514;49.476;8.484;2023-02-15T05:58:29;35.83;;;24.43;;
8958;SDS011;4514;49.476;8.484;2023-02-15T06:01:09;35.97;;;25.27;;
8958;SDS011;4514;49.476;8.484;2023-02-15T06:03:38;35.90;;;24.60;;
8958;SDS011;4514;49.476;8.484;2023-02-15T06:06:03;36.47;;;27.20;;
8958;SDS011;4514;49.476;8.484;2023-02-15T06:08:30;33.20;;;21.50;;
8958;SDS011;4514;49.476;8.484;2023-02-15T06:10:57;34.13;;;21.97;;
8958;SDS011;4514;49.476;8.484;2023-02-15T06:13:22;32.03;;;22.80;;
8958;SDS011;4514;49.476;8.484;2023-02-15T06:15:47;32.63;;;21.73;;
8958;SDS011;4514;49.476;8.484;2023-02-15T06:18:15;30.93;;;21.83;;
8958;SDS011;4514;49.476;8.484;2023-02-15T06:20:40;30.47;;;21.87;;
8958;SDS011;4514;49.476;8.484;2023-02-15T06:23:06;27.87;;;20.40;;
8958;SDS011;4514;49.476;8.484;2023-02-15T06:25:31;27.33;;;21.40;;
8958;SDS011;4514;49.476;8.484;2023-02-15T06:27:56;30.23;;;23.10;;
8958;SDS011;4514;49.476;8.484;2023-02-15T06:30:24;31.25;;;24.33;;
8958;SDS011;4514;49.476;8.484;2023-02-15T06:32:49;29.33;;;20.30;;
8958;SDS011;4514;49.476;8.484;2023-02-15T06:35:20;31.27;;;20.67;;
8958;SDS011;4514;49.476;8.484;2023-02-15T06:37:48;28.63;;;20.63;;
8958;SDS011;4514;49.476;8.484;2023-02-15T06:40:13;29.37;;;22.63;;
8958;SDS011;4514;49.476;8.484;2023-02-15T06:42:39;31.10;;;22.33;;
8958;SDS011;4514;49.476;8.484;2023-02-15T06:45:04;32.97;;;22.47;;
8958;SDS011;4514;49.476;8.484;2023-02-15T06:47:30;27.47;;;22.70;;
8958;SDS011;4514;49.476;8.484;2023-02-15T06:49:57;30.87;;;22.53;;
8958;SDS011;4514;49.476;8.484;2023-02-15T06:52:24;27.27;;;21.50;;
8958;SDS011;4514;49.476;8.484;2023-02-15T06:54:52;28.00;;;22.20;;
8958;SDS011;4514;49.476;8.484;2023-02-15T06:57:24;29.70;;;22.00;;
8958;SDS011;4514;49.476;8.484;2023-02-15T06:59:50;28.13;;;21.13;;
8958;SDS011;4514;49.476;8.484;2023-02-15T07:02:17;26.27;;;21.03;;
8958;SDS011;4514;49.476;8.484;2023-02-15T07:04:45;29.43;;;21.63;;
8958;SDS011;4514;49.476;8.484;2023-02-15T07:07:13;30.50;;;22.67;;
8958;SDS011;4514;49.476;8.484;2023-02-15T07:09:38;31.10;;;22.53;;
8958;SDS011;4514;49.476;8.484;2023-02-15T07:12:04;29.83;;;22.57;;
8958;SDS011;4514;49.476;8.484;2023-02-15T07:14:48;28.87;;;22.93;;
8958;SDS011;4514;49.476;8.484;2023-02-15T07:17:14;27.03;;;21.87;;
8958;SDS011;4514;49.476;8.484;2023-02-15T07:19:39;28.53;;;22.07;;
8958;SDS011;4514;49.476;8.484;2023-02-15T07:22:04;27.67;;;22.70;;
8958;SDS011;4514;49.476;8.484;2023-02-15T07:24:30;27.27;;;22.20;;
8958;SDS011;4514;49.476;8.484;2023-02-15T07:26:57;23.50;;;19.53;;
8958;SDS011;4514;49.476;8.484;2023-02-15T07:29:23;25.37;;;20.37;;
8958;SDS011;4514;49.476;8.484;2023-02-15T07:31:49;25.97;;;21.00;;
8958;SDS011;4514;49.476;8.484;2023-02-15T07:34:16;23.50;;;19.43;;
8958;SDS011;4514;49.476;8.484;2023-02-15T07:36:42;25.77;;;19.37;;
8958;SDS011;4514;49.476;8.484;2023-02-15T07:39:10;24.27;;;19.50;;
8958;SDS011;4514;49.476;8.484;2023-02-15T07:41:36;24.00;;;19.67;;
8958;SDS011;4514;49.476;8.484;2023-02-15T07:44:04;24.40;;;19.40;;
8958;SDS011;4514;49.476;8.484;2023-02-15T07:46:30;28.30;;;19.70;;
8958;SDS011;4514;49.476;8.484;2023-02-15T07:48:55;26.17;;;21.90;;
8958;SDS011;4514;49.476;8.484;2023-02-15T07:51:23;27.27;;;22.23;;
8958;SDS011;4514;49.476;8.484;2023-02-15T07:53:50;26.60;;;21.95;;
8958;SDS011;4514;49.476;8.484;2023-02-15T07:56:18;26.40;;;18.97;;
8958;SDS011;4514;49.476;8.484;2023-02-15T07:58:44;24.90;;;18.83;;
8958;SDS011;4514;49.476;8.484;2023-02-15T08:01:23;22.60;;;19.43;;
8958;SDS011;4514;49.476;8.484;2023-02-15T08:03:55;32.37;;;21.53;;
8958;SDS011;4514;49.476;8.484;2023-02-15T08:06:24;33.93;;;26.77;;
8958;SDS011;4514;49.476;8.484;2023-02-15T08:08:51;24.67;;;20.37;;
8958;SDS011;4514;49.476;8.484;2023-02-15T08:11:24;24.87;;;20.07;;
8958;SDS011;4514;49.476;8.484;2023-02-15T08:13:51;24.00;;;19.80;;
8958;SDS011;4514;49.476;8.484;2023-02-15T08:16:54;25.15;;;21.00;;
8958;SDS011;4514;49.476;8.484;2023-02-15T08:21:40;25.97;;;20.97;;
8958;SDS011;4514;49.476;8.484;2023-02-15T08:24:07;29.10;;;22.17;;
8958;SDS011;4514;49.476;8.484;2023-02-15T08:26:34;26.27;;;20.90;;
8958;SDS011;4514;49.476;8.484;2023-02-15T08:29:00;32.43;;;22.37;;
8958;SDS011;4514;49.476;8.484;2023-02-15T08:31:28;31.03;;;23.43;;
8958;SDS011;4514;49.476;8.484;2023-02-15T08:33:54;28.67;;;22.40;;
8958;SDS011;4514;49.476;8.484;2023-02-15T08:36:26;31.50;;;24.03;;
8958;SDS011;4514;49.476;8.484;2023-02-15T08:38:59;28.37;;;21.83;;
8958;SDS011;4514;49.476;8.484;2023-02-15T08:41:35;29.07;;;22.77;;
8958;SDS011;4514;49.476;8.484;2023-02-15T08:44:03;26.10;;;20.87;;
8958;SDS011;4514;49.476;8.484;2023-02-15T08:46:30;27.63;;;21.70;;
8958;SDS011;4514;49.476;8.484;2023-02-15T08:48:58;25.77;;;21.60;;
8958;SDS011;4514;49.476;8.484;2023-02-15T08:51:28;26.87;;;21.83;;
8958;SDS011;4514;49.476;8.484;2023-02-15T08:53:57;28.33;;;22.40;;
8958;SDS011;4514;49.476;8.484;2023-02-15T08:56:26;30.47;;;23.77;;
8958;SDS011;4514;49.476;8.484;2023-02-15T08:58:55;29.33;;;22.03;;
8958;SDS011;4514;49.476;8.484;2023-02-15T09:01:27;27.77;;;23.10;;
8958;SDS011;4514;49.476;8.484;2023-02-15T09:03:57;30.87;;;23.70;;
8958;SDS011;4514;49.476;8.484;2023-02-15T09:06:23;31.93;;;24.10;;
8958;SDS011;4514;49.476;8.484;2023-02-15T09:08:51;34.47;;;23.57;;
8958;SDS011;4514;49.476;8.484;2023-02-15T09:11:21;33.07;;;23.83;;
8958;SDS011;4514;49.476;8.484;2023-02-15T09:16:22;27.60;;;23.43;;
8958;SDS011;4514;49.476;8.484;2023-02-15T09:18:48;32.67;;;23.93;;
8958;SDS011;4514;49.476;8.484;2023-02-15T09:21:17;29.67;;;23.23;;
8958;SDS011;4514;49.476;8.484;2023-02-15T09:23:47;29.20;;;23.93;;
8958;SDS011;4514;49.476;8.484;2023-02-15T09:26:18;29.57;;;23.40;;
8958;SDS011;4514;49.476;8.484;2023-02-15T09:28:45;29.53;;;23.53;;
8958;SDS011;4514;49.476;8.484;2023-02-15T09:31:17;27.70;;;22.17;;
8958;SDS011;4514;49.476;8.484;2023-02-15T09:33:46;25.60;;;21.53;;
8958;SDS011;4514;49.476;8.484;2023-02-15T09:38:53;27.83;;;22.70;;
8958;SDS011;4514;49.476;8.484;2023-02-15T09:46:58;28.17;;;22.33;;
8958;SDS011;4514;49.476;8.484;2023-02-15T10:08:05;23.87;;;20.93;;
8958;SDS011;4514;49.476;8.484;2023-02-15T10:11:05;24.00;;;21.20;;
8958;SDS011;4514;49.476;8.484;2023-02-15T10:14:04;27.57;;;24.27;;
8958;SDS011;4514;49.476;8.484;2023-02-15T10:16:49;30.33;;;26.70;;
8958;SDS011;4514;49.476;8.484;2023-02-15T10:25:12;33.70;;;29.93;;
8958;SDS011;4514;49.476;8.484;2023-02-15T10:27:56;33.80;;;30.20;;
8958;SDS011;4514;49.476;8.484;2023-02-15T10:30:31;33.93;;;28.37;;
8958;SDS011;4514;49.476;8.484;2023-02-15T10:33:09;33.00;;;27.70;;
8958;SDS011;4514;49.476;8.484;2023-02-15T10:36:05;34.67;;;29.03;;
8958;SDS011;4514;49.476;8.484;2023-02-15T10:38:42;36.88;;;30.55;;
8958;SDS011;4514;49.476;8.484;2023-02-15T10:52:32;35.30;;;29.17;;
8958;SDS011;4514;49.476;8.484;2023-02-15T11:06:09;37.23;;;28.97;;
8958;SDS011;4514;49.476;8.484;2023-02-15T11:08:39;36.70;;;29.57;;
8958;SDS011;4514;49.476;8.484;2023-02-15T11:11:10;38.88;;;32.50;;
8958;SDS011;4514;49.476;8.484;2023-02-15T11:13:42;38.40;;;30.73;;
8958;SDS011;4514;49.476;8.484;2023-02-15T11:16:17;36.37;;;29.70;;
8958;SDS011;4514;49.476;8.484;2023-02-15T11:19:08;37.70;;;30.37;;
8958;SDS011;4514;49.476;8.484;2023-02-15T11:21:50;38.77;;;31.67;;
8958;SDS011;4514;49.476;8.484;2023-02-15T11:24:25;36.53;;;30.30;;
8958;SDS011;4514;49.476;8.484;2023-02-15T11:26:57;37.93;;;29.73;;
8958;SDS011;4514;49.476;8.484;2023-02-15T11:32:22;34.83;;;29.67;;
8958;SDS011;4514;49.476;8.484;2023-02-15T11:34:52;35.80;;;29.73;;
8958;SDS011;4514;49.476;8.484;2023-02-15T11:37:23;35.00;;;27.70;;
8958;SDS011;4514;49.476;8.484;2023-02-15T11:39:53;36.90;;;27.77;;
8958;SDS011;4514;49.476;8.484;2023-02-15T11:42:22;37.77;;;31.00;;
8958;SDS011;4514;49.476;8.484;2023-02-15T11:44:54;40.80;;;32.93;;
8958;SDS011;4514;49.476;8.484;2023-02-15T11:47:21;41.07;;;33.03;;
8958;SDS011;4514;49.476;8.484;2023-02-15T11:49:51;40.40;;;32.80;;
8958;SDS011;4514;49.476;8.484;2023-02-15T11:52:16;37.93;;;31.70;;
8958;SDS011;4514;49.476;8.484;2023-02-15T11:54:43;36.90;;;30.43;;
8958;SDS011;4514;49.476;8.484;2023-02-15T11:57:18;37.83;;;31.63;;
8958;SDS011;4514;49.476;8.484;2023-02-15T12:00:10;37.30;;;30.90;;
8958;SDS011;4514;49.476;8.484;2023-02-15T12:02:52;38.10;;;31.53;;
8958;SDS011;4514;49.476;8.484;2023-02-15T12:05:18;39.27;;;32.50;;
8958;SDS011;4514;49.476;8.484;2023-02-15T12:07:48;35.97;;;30.20;;
8958;SDS011;4514;49.476;8.484;2023-02-15T12:13:08;35.97;;;30.83;;
8958;SDS011;4514;49.476;8.484;2023-02-15T12:15:41;39.47;;;32.70;;
8958;SDS011;4514;49.476;8.484;2023-02-15T12:18:17;38.13;;;32.30;;
8958;SDS011;4514;49.476;8.484;2023-02-15T12:20:44;37.17;;;31.93;;
8958;SDS011;4514;49.476;8.484;2023-02-15T12:23:15;38.27;;;31.67;;
8958;SDS011;4514;49.476;8.484;2023-02-15T12:25:48;38.47;;;31.93;;
8958;SDS011;4514;49.476;8.484;2023-02-15T12:30:52;38.57;;;32.27;;
8958;SDS011;4514;49.476;8.484;2023-02-15T12:33:33;37.30;;;31.87;;
8958;SDS011;4514;49.476;8.484;2023-02-15T12:36:13;37.23;;;31.17;;
8958;SDS011;4514;49.476;8.484;2023-02-15T12:41:30;37.80;;;31.30;;
8958;SDS011;4514;49.476;8.484;2023-02-15T12:44:06;33.93;;;30.23;;
8958;SDS011;4514;49.476;8.484;2023-02-15T12:46:35;37.50;;;30.97;;
8958;SDS011;4514;49.476;8.484;2023-02-15T12:51:51;35.53;;;31.43;;
8958;SDS011;4514;49.476;8.484;2023-02-15T12:54:39;36.83;;;31.77;;
8958;SDS011;4514;49.476;8.484;2023-02-15T12:59:55;38.20;;;31.50;;
8958;SDS011;4514;49.476;8.484;2023-02-15T13:02:26;38.30;;;31.63;;
8958;SDS011;4514;49.476;8.484;2023-02-15T13:04:56;35.03;;;30.83;;
8958;SDS011;4514;49.476;8.484;2023-02-15T13:07:23;35.13;;;30.57;;
8958;SDS011;4514;49.476;8.484;2023-02-15T13:09:52;35.73;;;31.33;;
8958;SDS011;4514;49.476;8.484;2023-02-15T13:12:21;38.33;;;31.20;;
8958;SDS011;4514;49.476;8.484;2023-02-15T13:14:51;35.63;;;30.83;;
8958;SDS011;4514;49.476;8.484;2023-02-15T13:17:18;36.10;;;30.07;;
8958;SDS011;4514;49.476;8.484;2023-02-15T13:19:50;36.20;;;30.10;;
8958;SDS011;4514;49.476;8.484;2023-02-15T13:22:19;43.37;;;35.93;;
8958;SDS011;4514;49.476;8.484;2023-02-15T13:24:50;35.83;;;29.73;;
8958;SDS011;4514;49.476;8.484;2023-02-15T13:27:21;35.50;;;31.07;;
8958;SDS011;4514;49.476;8.484;2023-02-15T13:29:51;38.67;;;33.83;;
8958;SDS011;4514;49.476;8.484;2023-02-15T13:34:52;36.90;;;30.63;;
8958;SDS011;4514;49.476;8.484;2023-02-15T13:40:22;34.80;;;30.47;;
8958;SDS011;4514;49.476;8.484;2023-02-15T13:42:57;37.90;;;29.80;;
8958;SDS011;4514;49.476;8.484;2023-02-15T13:59:47;40.08;;;34.13;;
8958;SDS011;4514;49.476;8.484;2023-02-15T14:14:15;35.77;;;31.37;;
8958;SDS011;4514;49.476;8.484;2023-02-15T14:17:02;38.10;;;32.47;;
8958;SDS011;4514;49.476;8.484;2023-02-15T14:19:39;35.23;;;30.77;;
8958;SDS011;4514;49.476;8.484;2023-02-15T14:24:50;36.27;;;31.03;;
8958;SDS011;4514;49.476;8.484;2023-02-15T14:30:19;36.03;;;30.60;;
8958;SDS011;4514;49.476;8.484;2023-02-15T14:32:47;33.70;;;30.00;;
8958;SDS011;4514;49.476;8.484;2023-02-15T14:35:18;34.90;;;30.00;;
8958;SDS011;4514;49.476;8.484;2023-02-15T14:37:59;36.27;;;30.37;;
8958;SDS011;4514;49.476;8.484;2023-02-15T14:43:47;33.33;;;28.93;;
8958;SDS011;4514;49.476;8.484;2023-02-15T14:46:36;32.53;;;28.27;;
8958;SDS011;4514;49.476;8.484;2023-02-15T14:54:07;33.60;;;28.77;;
8958;SDS011;4514;49.476;8.484;2023-02-15T14:56:32;34.83;;;27.33;;
8958;SDS011;4514;49.476;8.484;2023-02-15T14:58:59;31.70;;;26.87;;
8958;SDS011;4514;49.476;8.484;2023-02-15T15:01:38;38.47;;;34.30;;
8958;SDS011;4514;49.476;8.484;2023-02-15T15:04:05;33.03;;;28.13;;
8958;SDS011;4514;49.476;8.484;2023-02-15T15:06:37;35.07;;;28.87;;
8958;SDS011;4514;49.476;8.484;2023-02-15T15:11:37;35.10;;;28.37;;
8958;SDS011;4514;49.476;8.484;2023-02-15T15:14:04;33.67;;;27.63;;
8958;SDS011;4514;49.476;8.484;2023-02-15T15:19:03;34.03;;;27.67;;
8958;SDS011;4514;49.476;8.484;2023-02-15T15:30:02;36.53;;;32.63;;
8958;SDS011;4514;49.476;8.484;2023-02-15T15:46:24;37.30;;;28.43;;
8958;SDS011;4514;49.476;8.484;2023-02-15T15:49:05;34.80;;;27.77;;
8958;SDS011;4514;49.476;8.484;2023-02-15T15:51:33;36.07;;;29.10;;
8958;SDS011;4514;49.476;8.484;2023-02-15T15:53:59;37.73;;;29.20;;
8958;SDS011;4514;49.476;8.484;2023-02-15T15:56:32;34.20;;;27.80;;
8958;SDS011;4514;49.476;8.484;2023-02-15T15:59:04;38.15;;;32.58;;
8958;SDS011;4514;49.476;8.484;2023-02-15T16:01:39;38.73;;;29.63;;
8958;SDS011;4514;49.476;8.484;2023-02-15T16:04:10;37.80;;;30.27;;
8958;SDS011;4514;49.476;8.484;2023-02-15T16:06:40;39.50;;;31.33;;
8958;SDS011;4514;49.476;8.484;2023-02-15T16:09:17;40.03;;;30.23;;
8958;SDS011;4514;49.476;8.484;2023-02-15T16:11:48;43.37;;;30.23;;
8958;SDS011;4514;49.476;8.484;2023-02-15T16:14:35;40.63;;;29.53;;
8958;SDS011;4514;49.476;8.484;2023-02-15T16:17:04;43.67;;;31.20;;
8958;SDS011;4514;49.476;8.484;2023-02-15T16:19:38;41.13;;;30.90;;
8958;SDS011;4514;49.476;8.484;2023-02-15T16:22:07;41.73;;;31.17;;
8958;SDS011;4514;49.476;8.484;2023-02-15T16:27:28;44.83;;;37.20;;
8958;SDS011;4514;49.476;8.484;2023-02-15T16:29:57;43.93;;;32.73;;
8958;SDS011;4514;49.476;8.484;2023-02-15T16:32:27;43.47;;;32.00;;
8958;SDS011;4514;49.476;8.484;2023-02-15T16:34:57;43.47;;;32.13;;
8958;SDS011;4514;49.476;8.484;2023-02-15T16:37:24;47.37;;;34.97;;
8958;SDS011;4514;49.476;8.484;2023-02-15T16:39:52;70.80;;;50.27;;
8958;SDS011;4514;49.476;8.484;2023-02-15T16:42:21;60.23;;;42.53;;
8958;SDS011;4514;49.476;8.484;2023-02-15T16:44:50;65.70;;;46.80;;
8958;SDS011;4514;49.476;8.484;2023-02-15T16:47:23;56.33;;;36.97;;
8958;SDS011;4514;49.476;8.484;2023-02-15T16:49:51;53.70;;;37.37;;
8958;SDS011;4514;49.476;8.484;2023-02-15T16:52:21;47.67;;;33.63;;
8958;SDS011;4514;49.476;8.484;2023-02-15T16:54:55;46.03;;;35.83;;
8958;SDS011;4514;49.476;8.484;2023-02-15T16:57:23;48.87;;;33.20;;
8958;SDS011;4514;49.476;8.484;2023-02-15T16:59:52;45.27;;;33.83;;
8958;SDS011;4514;49.476;8.484;2023-02-15T17:02:20;43.70;;;31.33;;
8958;SDS011;4514;49.476;8.484;2023-02-15T17:05:00;44.30;;;34.07;;
8958;SDS011;4514;49.476;8.484;2023-02-15T17:07:39;43.70;;;31.90;;
8958;SDS011;4514;49.476;8.484;2023-02-15T17:10:25;41.70;;;30.20;;
8958;SDS011;4514;49.476;8.484;2023-02-15T17:12:54;45.57;;;31.17;;
8958;SDS011;4514;49.476;8.484;2023-02-15T17:15:40;43.70;;;32.97;;
8958;SDS011;4514;49.476;8.484;2023-02-15T17:20:53;44.15;;;34.60;;
8958;SDS011;4514;49.476;8.484;2023-02-15T17:23:33;41.87;;;31.37;;
8958;SDS011;4514;49.476;8.484;2023-02-15T17:26:16;38.73;;;30.50;;
8958;SDS011;4514;49.476;8.484;2023-02-15T17:28:45;41.80;;;30.23;;
8958;SDS011;4514;49.476;8.484;2023-02-15T17:31:12;40.57;;;29.57;;
8958;SDS011;4514;49.476;8.484;2023-02-15T17:33:39;41.63;;;28.67;;
8958;SDS011;4514;49.476;8.484;2023-02-15T17:36:16;45.00;;;31.63;;
8958;SDS011;4514;49.476;8.484;2023-02-15T17:41:27;39.97;;;31.77;;
8958;SDS011;4514;49.476;8.484;2023-02-15T17:44:11;40.00;;;29.03;;
8958;SDS011;4514;49.476;8.484;2023-02-15T17:46:41;40.47;;;29.33;;
8958;SDS011;4514;49.476;8.484;2023-02-15T17:49:10;44.47;;;37.20;;
8958;SDS011;4514;49.476;8.484;2023-02-15T17:51:47;43.70;;;31.93;;
8958;SDS011;4514;49.476;8.484;2023-02-15T17:54:12;44.87;;;34.17;;
8958;SDS011;4514;49.476;8.484;2023-02-15T17:56:56;42.57;;;30.73;;
8958;SDS011;4514;49.476;8.484;2023-02-15T17:59:29;42.90;;;31.60;;
8958;SDS011;4514;49.476;8.484;2023-02-15T18:02:12;41.37;;;30.03;;
8958;SDS011;4514;49.476;8.484;2023-02-15T18:15:05;44.67;;;33.87;;
8958;SDS011;4514;49.476;8.484;2023-02-15T18:18:15;43.80;;;33.33;;
8958;SDS011;4514;49.476;8.484;2023-02-15T18:20:40;44.30;;;35.60;;
8958;SDS011;4514;49.476;8.484;2023-02-15T18:23:10;41.73;;;32.10;;
8958;SDS011;4514;49.476;8.484;2023-02-15T18:25:41;41.57;;;32.40;;